Terminal Aerodrome Forecast
Issued by NWS Cleveland, OH

Home | Current Version | Previous Version | Graphics & Text | Print | Product List | Glossary Off
Versions: 1 2 3 4 5 6 7 8 9 10 11 12 13 14 15 16

000
FTUS41 KCLE 221133
TAFCAK
TAF
KCAK 221133Z 2212/2312 18004KT 3SM BR OVC005
     FM221210 18004KT 6SM -SHRA VCTS SCT020 BKN040CB OVC090
      TEMPO 2213/2215 3SM -TSRA OVC040CB
     FM221700 22007KT P6SM -SHRA VCTS SCT035CB OVC040
     FM230200 26007KT P6SM SCT030 BKN080
     FM231000 24004KT 6SM BR SCT007 BKN015=

USA.gov is the U.S. government's official web portal to all federal, state and local government web resources and services.